Tiempo atmosférico en la estación meteorológica de Bailén, Jaén (345 m.)



Fecha
DESCASC
Temp. máxima en grados centígrados (hora)
DESCASC
Temp. mínima en grados centígrados (hora)
DESCASC
Temp. media en grados centígrados
DESCASC
Racha de viento máxima en m/sg (hora)
DESCASC
Velocidad máxima media en intervalos de 10 minutos(hora)
DESCASC
Precipitaciones diarias en mm
DESCASC
Precipitaciones de 00:00 a 06:00 en mm
DESCASC
Precipitaciones de 06:00 a 12:00 en mm
DESCASC
Precipitaciones de 12:00 a 18:00 en mm
DESCASC
Precipitaciones de 18:00 a 24:00 en mm
DESCASC
25-04-2019 17.4 (17:50) 11 (23:20) 14.2 8.06 (15:40) 3.06 (19:20) 4.6 0.8 3.2 0.2 0.4
24-04-2019 16.4 (13:20) 7.5 (07:40) 11.9 10 (13:10) 2.78 (13:10) 0.8 0.4 0 0 0.4
23-04-2019 15.6 (15:30) 7.5 (22:30) 11.6 13.61 (19:40) 3.89 (19:40) 9.4 0.2 3.8 4 1.4
22-04-2019 20.7 (17:00) 10.7 (00:00) 15.7 6.67 (23:10) 2.22 (23:40) 0.2 0 0.2 0 0
21-04-2019 18.6 (17:10) 10.5 (00:00) 14.6 9.44 (18:20) 4.44 (19:20) 0.6 0 0.6 0 0
20-04-2019 19.7 (16:10) 9.4 (00:00) 14.6 13.06 (18:40) 6.67 (15:20) 7 1 6 0 0
19-04-2019 19.7 (15:30) 9.7 (00:00) 14.7 6.94 (20:10) 2.78 (20:10) 8.8 0.2 0 0.2 8.4
18-04-2019 16.9 (14:50) 11.1 (00:00) 14 9.17 (22:10) 3.61 (22:10) 15.2 5.2 6.2 3.4 0.4
17-04-2019 28.9 (15:40) 13.4 (00:00) 21.1 9.44 (17:50) 3.33 (09:20) 0 0 0 0 0
16-04-2019 28.1 (17:40) 12.5 (00:00) 20.3 6.11 (12:50) 2.5 (13:00) 0 0 0 0 0
15-04-2019 27 (15:50) 13.1 (00:00) 20.1 10.28 (19:20) 3.61 (16:30) 0 0 0 0 0
14-04-2019 26.2 (17:50) 10.2 (00:00) 18.2 4.44 (14:50) 1.67 (08:30) 0 0 0 0 0
13-04-2019 24.1 (17:20) 7.1 (00:00) 15.6 4.72 (16:20) 1.94 (17:20) 0 0 0 0 0
12-04-2019 22.1 (17:50) 5.9 (00:00) 14 4.44 (16:20) 2.22 (11:40) 0 0 0 0 0
11-04-2019 19.8 (16:00) 6.2 (00:00) 13 6.39 (21:00) 2.5 (21:10) 0.2 0.2 0 0 0
10-04-2019 17.1 (17:40) 6.9 (00:00) 12 6.94 (18:10) 3.33 (20:30) 0.2 0 0.2 0 0
09-04-2019 15.3 (18:10) 8.4 (00:00) 11.8 8.33 (18:20) 3.61 (14:50) 9.2 4.4 0 4.8 0
08-04-2019 14.9 (17:30) 10.4 (00:00) 12.6 7.22 (13:10) 2.22 (17:40) 13.8 1.2 3.2 8.2 1.2
07-04-2019 15.4 (15:50) 7.6 (00:00) 11.5 7.22 (13:30) 2.5 (14:00) 2.2 0.2 0.2 0 1.8
06-04-2019 12.9 (17:20) 6.7 (00:00) 9.8 7.22 (14:50) 3.06 (17:10) 4 0 1 0.4 2.6
05-04-2019 11.9 (00:00) 7.1 (00:00) 9.5 9.72 (15:00) 2.78 (14:40) 14.6 0 5.6 4.2 4.8
04-04-2019 19.5 (17:10) 6.2 (00:00) 12.8 8.06 (23:30) 2.5 (18:30) 0 0 0 0 0
03-04-2019 22.3 (16:50) 8.8 (00:00) 15.5 8.33 (18:50) 2.78 (15:40) 0 0 0 0 0
02-04-2019 21.3 (17:30) 10.7 (00:00) 16 5 (18:30) 1.39 (15:40) 0.4 0.2 0 0 0.2
01-04-2019 19.7 (15:30) 10 (00:00) 14.9 6.11 (16:50) 2.22 (16:50) 0 0 0 0 0
31-03-2019 16.8 (18:40) 11.4 (00:00) 14.1 4.44 (18:30) 1.67 (09:40) 10.8 5.4 5.4 0 0
30-03-2019 25.8 (16:50) 9.2 (00:00) 17.5 6.67 (21:30) 3.33 (07:10) 0 0 0 0 0
29-03-2019 24.2 (17:20) 7.8 (00:00) 16 6.67 (12:00) 3.33 (11:30) 0 0 0 0 0
28-03-2019 24.2 (17:20) 7.3 (00:00) 15.8 8.89 (20:50) 3.89 (10:00) 0 0 0 0 0
27-03-2019 23.6 (16:50) 8.9 (00:00) 16.3 9.17 (13:00) 4.44 (12:00) 0 0 0 0 0

Gráficas

Temp. máximas Temp. mínimas Temp. medias Precipitaciones Rachas de viento máximas Velocidades máximas media en intervalos de 10 minutos

Datos horarios

Fecha y hora oficial Temperatura (ºC) Velocidad del viento (km/h) Dirección del viento Racha (km/h) Dirección de racha Precipitación (mm) Presión (hPa) Tendencia (hPa) Humedad (%)
2019-04-25 23:00:00 11.4 0 Calma 7 Noroeste 0 -- -- 77
2019-04-25 22:00:00 13.1 0 Calma 15 Oeste 0 -- -- 72
2019-04-25 21:00:00 14.4 4 Noroeste 20 Oeste 0 -- -- 69
2019-04-25 20:00:00 15.7 4 Oeste 26 Oeste 0 -- -- 65
2019-04-25 19:00:00 15.2 4 Oeste 24 Oeste 0.4 -- -- 74
2019-04-25 18:00:00 17 8 Sudoeste 25 Sudoeste 0 -- -- 62
2019-04-25 17:00:00 15.7 5 Sudoeste 27 Oeste 0 -- -- 76
2019-04-25 16:00:00 17 9 Sudoeste 29 Oeste 0 -- -- 61
2019-04-25 15:00:00 16.1 7 Sudoeste 23 Sudoeste 0 -- -- 65
2019-04-25 14:00:00 14.6 5 Sudoeste 21 Sudoeste 0 -- -- 70
2019-04-25 13:00:00 14.8 7 Sudoeste 22 Sur -- -- -- 75
2019-04-25 12:00:00 13.3 7 Sudoeste 27 Oeste 0 -- -- 84
2019-04-25 11:00:00 12.2 5 Sudoeste 22 Oeste 0 -- -- 96
2019-04-25 10:00:00 11.9 5 Sudoeste 22 Sudoeste 0.8 -- -- 96
2019-04-25 09:00:00 12.1 7 Sudoeste 27 Noroeste 0.8 -- -- 95
2019-04-25 08:00:00 12.7 7 Sudoeste 24 Oeste 0.8 -- -- 95
2019-04-25 07:00:00 12.8 6 Sudoeste 23 Sudoeste 0.8 -- -- 94
2019-04-25 06:00:00 12.9 6 Sudoeste 25 Sudoeste 0 -- -- 94
2019-04-25 05:00:00 12.8 8 Sudoeste 22 Sudoeste 0.2 -- -- 94
2019-04-25 04:00:00 12.5 5 Sudoeste 21 Sudoeste 0.4 -- -- 92
2019-04-25 03:00:00 13.5 8 Sudoeste 23 Sudoeste 0 -- -- 85
2019-04-25 02:00:00 13.8 6 Sudoeste 23 Sudoeste 0 -- -- 81
2019-04-25 01:00:00 13.4 4 Sudoeste 18 Sudoeste 0.2 -- -- 81
2019-04-25 00:00:00 13.9 4 Sudoeste 14 Sur 0.2 -- -- 78
2019-04-24 23:00:00 14.4 5 Sudoeste 16 Sudoeste 0 -- -- 74
2019-04-24 22:00:00 13.8 6 Sudoeste 22 Oeste 0 -- -- 78
2019-04-24 21:00:00 15 4 Sudoeste 18 Sudoeste -- -- -- 75
2019-04-24 20:00:00 15.3 8 Sudoeste 22 Oeste 0 -- -- 69
2019-04-24 19:00:00 15.3 7 Sudoeste 27 Oeste 0 -- -- 70
2019-04-24 18:00:00 15.6 8 Sudoeste 24 Sudoeste 0 -- -- 65
2019-04-24 17:00:00 15.4 8 Sudoeste 24 Sur 0 -- -- 66
2019-04-24 16:00:00 13.9 4 Oeste 27 Oeste 0 -- -- 80
2019-04-24 15:00:00 15.1 6 Sudoeste 20 Oeste 0 -- -- 65
2019-04-24 14:00:00 15.1 6 Sudoeste 36 Oeste 0 -- -- 65
2019-04-24 13:00:00 16 9 Sudoeste 27 Sudoeste 0 -- -- 62
2019-04-24 12:00:00 14.4 9 Sudoeste 30 Sudoeste 0 -- -- 65
2019-04-24 11:00:00 12.3 8 Sudoeste 23 Oeste 0 -- -- 79
2019-04-24 10:00:00 9.6 4 Sudoeste 10 Sur 0 -- -- 90
2019-04-24 09:00:00 8.5 0 Calma 5 Oeste 0 -- -- 93
2019-04-24 08:00:00 7.7 0 Calma 6 Sudoeste 0 -- -- 93
2019-04-24 07:00:00 7.7 0 Calma 4 Este 0 -- -- 91
2019-04-24 06:00:00 8.5 0 Calma 5 Sudeste 0 -- -- 93
2019-04-24 05:00:00 8.3 0 Calma 6 Oeste 0 -- -- 93
2019-04-24 04:00:00 8.1 0 Calma 4 Sudoeste 0.2 -- -- 92
2019-04-24 03:00:00 8.1 0 Calma 5 Sudoeste 0.2 -- -- 91
2019-04-24 02:00:00 7.9 2 Oeste 5 Oeste 0 -- -- 89
2019-04-24 01:00:00 8.5 0 Calma 8 Noroeste 0 -- -- 90
2019-04-24 00:00:00 8.4 0 Calma 5 Norte 0 -- -- 91
2019-04-23 23:00:00 7.8 3 Norte 7 Norte 0 -- -- 91
2019-04-23 22:00:00 7.9 0 Calma 5 Sudeste 0.2 -- -- 87
2019-04-23 21:00:00 8.2 0 Calma 12 Oeste 1.2 -- -- 86
2019-04-23 20:00:00 8.5 4 Noroeste 49 Oeste 0 -- -- 78
2019-04-23 19:00:00 12.1 4 Sudoeste 16 Sudoeste 0 -- -- 73
2019-04-23 18:00:00 11.4 5 Sudoeste 35 Noroeste 0.6 -- -- 79
2019-04-23 17:00:00 10.8 9 Oeste 32 Oeste 3.2 -- -- 78
2019-04-23 16:00:00 14.2 8 Sudoeste 22 Sudeste 0.2 -- -- 56
2019-04-23 15:00:00 14.6 8 Sudoeste 27 Sudoeste 0 -- -- 60
2019-04-23 14:00:00 13.2 6 Sudoeste 25 Sudoeste 0 -- -- 68
2019-04-23 13:00:00 11.3 6 Sudoeste 22 Oeste 0 -- -- 81
2019-04-23 12:00:00 10.9 6 Sudoeste 24 Oeste 0.6 -- -- 92
2019-04-23 11:00:00 11.2 6 Sudoeste 23 Oeste 1 -- -- 91
2019-04-23 10:00:00 12 4 Sudoeste 14 Oeste 1.2 -- -- 93
2019-04-23 09:00:00 12.4 4 Sudoeste 12 Oeste 1 -- -- 90
2019-04-23 08:00:00 12.3 3 Oeste 7 Oeste 0 -- -- 88
2019-04-23 07:00:00 12.3 3 Sudoeste 13 Sudoeste 0 -- -- 87
2019-04-23 06:00:00 13.1 3 Sudoeste 13 Sudoeste 0.2 -- -- 84
2019-04-23 05:00:00 13.4 3 Sudoeste 13 Oeste 0 -- -- 79
2019-04-23 04:00:00 13.3 4 Sudoeste 19 Oeste 0 -- -- 79
2019-04-23 03:00:00 13.6 8 Sudoeste 28 Sudoeste 0 -- -- 76
2019-04-23 02:00:00 13.9 6 Sudoeste 28 Sudoeste 0 -- -- 77
2019-04-23 01:00:00 14.5 9 Sudoeste 28 Sudoeste 0 -- -- 73
2019-04-23 00:00:00 15.4 5 Sudoeste 24 Sudoeste 0 -- -- 64
2019-04-22 23:00:00 16.1 6 Sudoeste 19 Sudoeste 0 -- -- 59
2019-04-22 22:00:00 15.6 0 Calma 6 Sudeste 0 -- -- 70
2019-04-22 21:00:00 17.2 0 Calma 7 Oeste 0 -- -- 60
2019-04-22 20:00:00 18.1 0 Calma 6 Sudoeste 0 -- -- 59
2019-04-22 19:00:00 19 2 Sudoeste 15 Sudoeste 0 -- -- 52
2019-04-22 18:00:00 19.5 6 Sudoeste 18 Sudoeste 0 -- -- 50
2019-04-22 17:00:00 20.7 5 Sudoeste 15 Sudoeste 0 -- -- 48
2019-04-22 16:00:00 19 4 Sudoeste 12 Oeste 0 -- -- 53
2019-04-22 15:00:00 17.7 3 Sudoeste 12 Noroeste 0 -- -- 57
2019-04-22 14:00:00 16.6 4 Sudoeste 13 Oeste 0 -- -- 60
2019-04-22 13:00:00 15.4 5 Sudoeste 13 Sur 0 -- -- 65
2019-04-22 12:00:00 14.2 3 Sudoeste 12 Oeste 0 -- -- 71
2019-04-22 11:00:00 12.3 2 Sudoeste 8 Oeste 0 -- -- 78
2019-04-22 10:00:00 11.7 0 Calma 4 Sudoeste 0 -- -- 83
2019-04-22 09:00:00 10.9 0 Calma 3 Sudoeste 0 -- -- 88
2019-04-22 08:00:00 10.7 0 Calma 0 Calma 0.2 -- -- 88
2019-04-22 07:00:00 10.9 0 Calma 2 Sudoeste 0 -- -- 85
2019-04-22 06:00:00 11.2 0 Calma 3 Nordeste 0 -- -- 83
2019-04-22 05:00:00 11.3 0 Calma 9 Este 0 -- -- 81
2019-04-22 04:00:00 11.4 4 Nordeste 12 Nordeste 0 -- -- 81
2019-04-22 03:00:00 11.7 4 Nordeste 14 Nordeste 0 -- -- 77
2019-04-22 02:00:00 12 5 Nordeste 13 Nordeste 0 -- -- 74
2019-04-22 01:00:00 12.4 7 Nordeste 16 Nordeste 0 -- -- 72
2019-04-22 00:00:00 12.5 7 Nordeste 23 Nordeste 0 -- -- 71
2019-04-21 23:00:00 12.9 11 Nordeste 24 Nordeste 0 -- -- 68
2019-04-21 22:00:00 13.2 7 Nordeste 22 Nordeste 0 -- -- 69
2019-04-21 21:00:00 13.7 10 Nordeste 24 Nordeste 0 -- -- 67
2019-04-21 20:00:00 14.3 13 Nordeste 31 Nordeste 0 -- -- 64
2019-04-21 19:00:00 15.3 14 Nordeste 34 Nordeste 0 -- -- 60
2019-04-21 18:00:00 16.9 12 Nordeste 30 Nordeste 0 -- -- 57
2019-04-21 17:00:00 18.1 10 Nordeste 29 Nordeste 0 -- -- 54
2019-04-21 16:00:00 17.1 10 Nordeste 30 Nordeste 0 -- -- 58
2019-04-21 15:00:00 16.1 10 Nordeste 27 Nordeste 0 -- -- 59
2019-04-21 14:00:00 16.5 9 Nordeste 27 Nordeste 0 -- -- 59
2019-04-21 13:00:00 15.9 11 Nordeste 26 Norte 0 -- -- 60
2019-04-21 12:00:00 13.8 9 Nordeste 21 Este 0 -- -- 67
2019-04-21 11:00:00 13.6 10 Nordeste 24 Este 0 -- -- 70
2019-04-21 10:00:00 11.7 11 Nordeste 22 Nordeste 0 -- -- 76
2019-04-21 09:00:00 10.9 10 Nordeste 23 Nordeste 0 -- -- 78
2019-04-21 08:00:00 10.6 7 Nordeste 18 Norte 0.2 -- -- 82
2019-04-21 07:00:00 10.7 8 Nordeste 22 Nordeste 0.4 -- -- 82
2019-04-21 06:00:00 11.4 10 Nordeste 24 Nordeste 0 -- -- 76
2019-04-21 05:00:00 12.1 12 Nordeste 26 Nordeste 0 -- -- 70
2019-04-21 04:00:00 12.4 10 Nordeste 22 Nordeste 0 -- -- 66
2019-04-21 03:00:00 12.6 12 Nordeste 25 Nordeste 0 -- -- 66
2019-04-21 02:00:00 12.8 11 Nordeste 20 Nordeste 0 -- -- 66
2019-04-21 01:00:00 12.8 11 Nordeste 23 Nordeste 0 -- -- 66
2019-04-21 00:00:00 13.3 12 Nordeste 30 Nordeste 0 -- -- 66
2019-04-20 23:00:00 13.6 13 Nordeste 31 Nordeste 0 -- -- 64
2019-04-20 22:00:00 13.9 13 Nordeste 32 Nordeste 0 -- -- 61
2019-04-20 21:00:00 14.6 14 Nordeste 38 Nordeste 0 -- -- 62
2019-04-20 20:00:00 15.7 15 Nordeste 37 Nordeste 0 -- -- 61
2019-04-20 19:00:00 16.6 17 Nordeste 47 Nordeste 0 -- -- 61
2019-04-20 18:00:00 17.6 18 Nordeste 41 Nordeste 0 -- -- 58
2019-04-20 17:00:00 18.7 17 Nordeste 42 Nordeste 0 -- -- 56
2019-04-20 16:00:00 19.3 19 Nordeste 46 Nordeste 0 -- -- 56
2019-04-20 15:00:00 18.9 19 Nordeste 40 Nordeste 0 -- -- 58
2019-04-20 14:00:00 17.7 20 Nordeste 40 Nordeste 0 -- -- 61
2019-04-20 13:00:00 17.6 18 Nordeste 41 Este 0 -- -- 62
2019-04-20 12:00:00 16.3 21 Nordeste 42 Nordeste 0 -- -- 66
2019-04-20 11:00:00 14.1 17 Nordeste 38 Nordeste 0 -- -- 81
2019-04-20 10:00:00 11.6 8 Nordeste 18 Nordeste 0 -- -- 93
2019-04-20 09:00:00 10.7 0 Calma 2 Sur 0.8 -- -- 93
2019-04-20 08:00:00 10.5 0 Calma 7 Nordeste 2.8 -- -- 92
2019-04-20 07:00:00 10.6 4 Nordeste 13 Nordeste 2.4 -- -- 92
2019-04-20 06:00:00 10.6 5 Nordeste 14 Nordeste 0.4 -- -- 91
2019-04-20 05:00:00 10.2 3 Este 9 Este 0 -- -- 91
2019-04-20 04:00:00 10.1 0 Calma 14 Nordeste 0.6 -- -- 90
2019-04-20 03:00:00 9.7 5 Nordeste 14 Nordeste 0 -- -- 88
2019-04-20 02:00:00 9.5 5 Nordeste 17 Nordeste 0 -- -- 87
2019-04-20 01:00:00 9.4 5 Nordeste 12 Nordeste 0 -- -- 87
2019-04-20 00:00:00 9.7 6 Nordeste 14 Nordeste 0 -- -- 85
2019-04-19 23:00:00 10.6 6 Norte 16 Nordeste 0 -- -- 84
2019-04-19 22:00:00 11.9 5 Nordeste 17 Este 1.2 -- -- 85
2019-04-19 21:00:00 12.5 6 Este 25 Norte 5.6 -- -- 87
2019-04-19 20:00:00 13.2 5 Norte 18 Noroeste 0 -- -- 84
2019-04-19 19:00:00 14.1 6 Noroeste 18 Noroeste 1.6 -- -- 79
2019-04-19 18:00:00 17 4 Noroeste 10 Sudeste 0 -- -- 61
2019-04-19 17:00:00 18.4 2 Sur 10 Nordeste 0 -- -- 51
2019-04-19 16:00:00 19 4 Este 14 Este 0.2 -- -- 55
2019-04-19 15:00:00 18.6 4 Nordeste 13 Este 0 -- -- 53
2019-04-19 14:00:00 17.2 2 Sur 11 Nordeste 0 -- -- 60
2019-04-19 13:00:00 16.1 5 Nordeste 13 Norte 0 -- -- 67
2019-04-19 12:00:00 14.8 3 Nordeste 13 Este 0 -- -- 72
2019-04-19 11:00:00 12.7 4 Este 10 Nordeste 0 -- -- 79
2019-04-19 10:00:00 11.5 2 Sudoeste 6 Oeste 0 -- -- 83
2019-04-19 09:00:00 10.7 0 Calma 2 Sur 0 -- -- 89
2019-04-19 08:00:00 10.5 0 Calma 7 Oeste 0 -- -- 88
2019-04-19 07:00:00 10.4 5 Oeste 9 Oeste 0 -- -- 88
2019-04-19 06:00:00 10.4 5 Oeste 11 Oeste 0 -- -- 89
2019-04-19 05:00:00 10.5 0 Calma 13 Noroeste 0 -- -- 89
2019-04-19 04:00:00 10.8 6 Oeste 11 Noroeste 0 -- -- 91
2019-04-19 03:00:00 10.9 0 Calma 5 Oeste 0 -- -- 91
2019-04-19 02:00:00 10.8 0 Calma 3 Sudoeste 0 -- -- 91
2019-04-19 01:00:00 10.8 0 Calma 12 Noroeste 0.2 -- -- 88
2019-04-19 00:00:00 11.1 5 Oeste 12 Noroeste 0 -- -- 88
2019-04-18 23:00:00 11.1 0 Calma 33 Oeste 0.4 -- -- 87
2019-04-18 22:00:00 12.8 6 Oeste 25 Noroeste 0 -- -- 76
2019-04-18 21:00:00 13.1 2 Sudoeste 9 Sudoeste 0 -- -- 82
2019-04-18 20:00:00 13.5 2 Sudoeste 11 Sudoeste 0 -- -- 80
2019-04-18 19:00:00 13.8 3 Sudoeste 10 Sudoeste 0 -- -- 81
2019-04-18 18:00:00 13.2 3 Sudoeste 12 Noroeste 1.2 -- -- 90
2019-04-18 17:00:00 11.7 4 Oeste 29 Sudoeste 1.6 -- -- 88
2019-04-18 16:00:00 15.7 3 Norte 14 Nordeste 0 -- -- 69
2019-04-18 15:00:00 16.5 4 Este 15 Sudeste 0 -- -- 69
2019-04-18 14:00:00 14.2 3 Nordeste 11 Este 0.2 -- -- 79
2019-04-18 13:00:00 12.4 4 Este 12 Sudeste 0.4 -- -- 91
2019-04-18 12:00:00 11.9 4 Sudeste 12 Sudeste 0 -- -- 88
2019-04-18 11:00:00 11.7 6 Este 14 Este 0.2 -- -- 91
2019-04-18 10:00:00 11.7 4 Este 13 Este 0.8 -- -- 91
2019-04-18 09:00:00 11.8 0 Calma 4 Sur 0.6 -- -- 90
2019-04-18 08:00:00 12 0 Calma 7 Sudeste 0.6 -- -- 91
2019-04-18 07:00:00 12.1 0 Calma 13 Sudeste 4 -- -- 91
2019-04-18 06:00:00 12.4 0 Calma 11 Oeste 1 -- -- 90
2019-04-18 05:00:00 12.5 5 Este 12 Este 0.2 -- -- 88
2019-04-18 04:00:00 12.4 0 Calma 4 Nordeste 0.2 -- -- 86
2019-04-18 03:00:00 12.6 0 Calma 9 Este 3.2 -- -- 86
2019-04-18 02:00:00 13.3 0 Calma 7 Norte 0.6 -- -- 83
2019-04-18 01:00:00 14.2 4 Sudoeste 12 Oeste 0 -- -- 71
2019-04-18 00:00:00 15 5 Sudoeste 24 Oeste 0 -- -- 67
2019-04-17 23:00:00 15.9 5 Sudoeste 31 Sudoeste 0 -- -- 70
2019-04-17 22:00:00 17.7 8 Sudoeste 26 Sudoeste 0 -- -- 60
2019-04-17 21:00:00 18.5 8 Oeste 24 Oeste 0 -- -- 58
2019-04-17 20:00:00 19.5 5 Sudoeste 21 Sur 0 -- -- 57
2019-04-17 19:00:00 20.1 8 Sudoeste 31 Noroeste 0 -- -- 52
2019-04-17 18:00:00 21.3 12 Oeste 34 Oeste 0 -- -- 49
2019-04-17 17:00:00 22.8 10 Sudoeste 30 Sur 0 -- -- 45
2019-04-17 16:00:00 27 8 Sudoeste 25 Sudoeste 0 -- -- 35
2019-04-17 15:00:00 27.8 3 Sudoeste 15 Nordeste 0 -- -- 30
2019-04-17 14:00:00 27.5 6 Nordeste 17 Nordeste -- -- -- 35
2019-04-17 13:00:00 24.5 8 Nordeste 16 Nordeste 0 -- -- 42
2019-04-17 12:00:00 21.9 7 Nordeste 17 Este 0 -- -- 49
2019-04-17 11:00:00 19.1 7 Este 19 Nordeste 0 -- -- 55
2019-04-17 10:00:00 16.1 8 Nordeste 22 Nordeste 0 -- -- 63
2019-04-17 09:00:00 14.2 11 Nordeste 21 Nordeste 0 -- -- 67
2019-04-17 08:00:00 13.4 10 Nordeste 22 Nordeste 0 -- -- 68
2019-04-17 07:00:00 13.5 11 Nordeste 18 Nordeste 0 -- -- 67
2019-04-17 06:00:00 13.5 10 Nordeste 17 Norte 0 -- -- 67
2019-04-17 05:00:00 13.6 3 Norte 11 Nordeste 0 -- -- 67
2019-04-17 04:00:00 13.6 4 Nordeste 9 Nordeste 0 -- -- 68
2019-04-17 03:00:00 14.4 0 Calma 3 Noroeste 0 -- -- 68
2019-04-17 02:00:00 15.6 0 Calma 4 Norte 0 -- -- 64
2019-04-17 01:00:00 16.4 0 Calma 5 Norte 0 -- -- 60
2019-04-17 00:00:00 17.6 2 Norte 8 Nordeste 0 -- -- 55
2019-04-16 23:00:00 18.8 2 Norte 9 Oeste 0 -- -- 52
2019-04-16 22:00:00 20.4 0 Calma 4 Oeste 0 -- -- 49
2019-04-16 21:00:00 22.3 2 Oeste 8 Oeste 0 -- -- 41
2019-04-16 20:00:00 24.6 0 Calma 10 Oeste 0 -- -- 36
2019-04-16 19:00:00 25.8 4 Norte 12 Norte 0 -- -- 33
2019-04-16 18:00:00 27 3 Sur 10 Norte 0 -- -- 29
2019-04-16 17:00:00 27.7 7 Nordeste 15 Nordeste 0 -- -- 31
2019-04-16 16:00:00 26.4 3 Este 17 Nordeste 0 -- -- 31
2019-04-16 15:00:00 25.1 6 Nordeste 15 Este 0 -- -- 34
2019-04-16 14:00:00 23.3 6 Nordeste 17 Nordeste 0 -- -- 36
2019-04-16 13:00:00 21.7 9 Norte 22 Este 0 -- -- 47
2019-04-16 12:00:00 18.7 3 Nordeste 13 Sudeste 0 -- -- 64
2019-04-16 11:00:00 15.3 5 Nordeste 14 Este 0 -- -- 80
2019-04-16 10:00:00 13.4 4 Nordeste 14 Nordeste 0 -- -- 87
2019-04-16 09:00:00 12.7 2 Norte 8 Nordeste 0 -- -- 88
2019-04-16 08:00:00 12.7 3 Nordeste 8 Nordeste 0 -- -- 88
2019-04-16 07:00:00 12.6 0 Calma 9 Oeste 0 -- -- 90
2019-04-16 06:00:00 12.6 0 Calma 10 Sudoeste 0 -- -- 88
2019-04-16 05:00:00 13.3 3 Oeste 10 Noroeste 0 -- -- 86
2019-04-16 04:00:00 14 4 Oeste 12 Oeste 0 -- -- 83
2019-04-16 03:00:00 14.6 3 Sudoeste 10 Oeste 0 -- -- 80
2019-04-16 02:00:00 15.5 3 Sudoeste 10 Oeste 0 -- -- 76
2019-04-16 01:00:00 16.6 3 Sudoeste 18 Sudoeste 0 -- -- 70
2019-04-16 00:00:00 17.7 5 Sudoeste 22 Sudoeste 0 -- -- 65
2019-04-15 23:00:00 18.4 5 Sudoeste 25 Oeste 0 -- -- 62
2019-04-15 22:00:00 19.9 8 Sudoeste 27 Oeste 0 -- -- 54
2019-04-15 21:00:00 21.3 7 Sudoeste 25 Sudoeste 0 -- -- 46
2019-04-15 20:00:00 22.8 9 Sudoeste 37 Sudoeste 0 -- -- 36
2019-04-15 19:00:00 25 9 Sudoeste 28 Oeste 0 -- -- 30
2019-04-15 18:00:00 26.7 9 Sudoeste 30 Oeste 0 -- -- 29
2019-04-15 17:00:00 26.7 10 Oeste 33 Oeste 0 -- -- 34
2019-04-15 16:00:00 27 10 Sudoeste 26 Noroeste 0 -- -- 33
2019-04-15 15:00:00 25.4 9 Oeste 24 Oeste 0 -- -- 42
2019-04-15 14:00:00 23.8 8 Oeste 27 Oeste 0 -- -- 45
2019-04-15 13:00:00 22.3 7 Oeste 22 Noroeste 0 -- -- 49
2019-04-15 12:00:00 19.4 3 Sudoeste 7 Oeste 0 -- -- 64
2019-04-15 11:00:00 17.9 2 Oeste 6 Oeste 0 -- -- 69
2019-04-15 10:00:00 15.8 0 Calma 8 Este 0 -- -- 77
2019-04-15 09:00:00 14 4 Este 10 Nordeste 0 -- -- 82
2019-04-15 08:00:00 13.2 0 Calma 10 Nordeste 0 -- -- 81
2019-04-15 07:00:00 13.9 0 Calma 9 Nordeste 0 -- -- 80
2019-04-15 06:00:00 14.3 4 Nordeste 8 Este 0 -- -- 78
2019-04-15 05:00:00 14.6 5 Nordeste 13 Nordeste 0 -- -- 78
2019-04-15 04:00:00 15.1 0 Calma 8 Norte 0 -- -- 75
2019-04-15 03:00:00 15.7 5 Nordeste 9 Norte 0 -- -- 74
2019-04-15 02:00:00 16.3 3 Norte 5 Nordeste 0 -- -- 71
2019-04-15 01:00:00 17.2 0 Calma 4 Nordeste 0 -- -- 70
2019-04-15 00:00:00 18.5 3 Nordeste 5 Nordeste 0 -- -- 64
2019-04-14 23:00:00 19.2 0 Calma 6 Oeste 0 -- -- 61
2019-04-14 22:00:00 20.4 2 Oeste 5 Noroeste 0 -- -- 57
2019-04-14 21:00:00 21.3 0 Calma 6 Sudoeste 0 -- -- 52
2019-04-14 20:00:00 22.8 2 Sudoeste 11 Sudoeste 0 -- -- 48
2019-04-14 19:00:00 24.6 3 Sudoeste 13 Oeste 0 -- -- 43
2019-04-14 18:00:00 26.2 5 Sudoeste 14 Oeste 0 -- -- 41
2019-04-14 17:00:00 25.8 5 Sur 14 Oeste 0 -- -- 43
2019-04-14 16:00:00 24.9 5 Sudoeste 13 Sudoeste 0 -- -- 43
2019-04-14 15:00:00 23.9 3 Sudoeste 16 Sur 0 -- -- 40
2019-04-14 14:00:00 22.2 4 Oeste 10 Sudoeste 0 -- -- 43
2019-04-14 13:00:00 20.3 4 Oeste 10 Oeste 0 -- -- 52
2019-04-14 12:00:00 17.8 3 Sur 8 Este 0 -- -- 57
2019-04-14 11:00:00 14.3 0 Calma 6 Noroeste 0 -- -- 66
2019-04-14 10:00:00 12.4 3 Sudeste 6 Nordeste 0 -- -- 74
2019-04-14 09:00:00 10.8 3 Nordeste 11 Nordeste 0 -- -- 80
2019-04-14 08:00:00 10.3 0 Calma 3 Norte 0 -- -- 79
2019-04-14 07:00:00 10.8 0 Calma 5 Nordeste 0 -- -- 76
2019-04-14 06:00:00 11.5 0 Calma 7 Oeste 0 -- -- 73
2019-04-14 05:00:00 12.2 0 Calma 9 Sudoeste 0 -- -- 71
2019-04-14 04:00:00 12 2 Sudoeste 9 Oeste 0 -- -- 70
2019-04-14 03:00:00 12.7 0 Calma 5 Oeste 0 -- -- 65
2019-04-14 02:00:00 14 0 Calma 6 Oeste 0 -- -- 60
2019-04-14 01:00:00 14.4 0 Calma 5 Oeste 0 -- -- 61
2019-04-14 00:00:00 15.1 3 Oeste 5 Noroeste 0 -- -- 57
2019-04-13 23:00:00 16 2 Oeste 5 Oeste 0 -- -- 54
2019-04-13 22:00:00 16.9 2 Oeste 5 Oeste 0 -- -- 48
2019-04-13 21:00:00 19 0 Calma 9 Oeste 0 -- -- 42
2019-04-13 20:00:00 21.3 4 Sudoeste 13 Sudoeste 0 -- -- 35
2019-04-13 19:00:00 22.7 4 Sudoeste 14 Sudoeste 0 -- -- 33
2019-04-13 18:00:00 23.9 5 Sur 17 Noroeste 0 -- -- 32
2019-04-13 17:00:00 23.8 4 Sudoeste 17 Sur 0 -- -- 31
2019-04-13 16:00:00 23.1 3 Oeste 15 Noroeste 0 -- -- 34
2019-04-13 15:00:00 22.1 4 Sudoeste 12 Noroeste 0 -- -- 33
2019-04-13 14:00:00 20.4 4 Sudoeste 9 Noroeste 0 -- -- 39
2019-04-13 13:00:00 18.9 3 Sur 9 Oeste 0 -- -- 44
2019-04-13 12:00:00 16.3 3 Sudeste 8 Este 0 -- -- 58
2019-04-13 11:00:00 12.2 3 Sudeste 8 Sudeste 0 -- -- 73
2019-04-13 10:00:00 9.6 0 Calma 5 Este 0 -- -- 78
2019-04-13 09:00:00 7.6 2 Este 5 Nordeste 0 -- -- 86
2019-04-13 08:00:00 7.1 0 Calma 3 Norte 0 -- -- 84
2019-04-13 07:00:00 7.4 0 Calma 3 Nordeste 0 -- -- 84
2019-04-13 06:00:00 8.1 0 Calma 2 Noroeste 0 -- -- 81
2019-04-13 05:00:00 8.9 0 Calma 3 Oeste 0 -- -- 77
2019-04-13 04:00:00 9.9 0 Calma 6 Nordeste 0 -- -- 74
2019-04-13 03:00:00 10.9 0 Calma 3 Nordeste 0 -- -- 69
2019-04-13 02:00:00 11.4 0 Calma 2 Sudoeste 0 -- -- 68
2019-04-13 01:00:00 12.2 0 Calma 3 Nordeste 0 -- -- 65
2019-04-13 00:00:00 13.2 0 Calma 10 Nordeste 0 -- -- 61
2019-04-12 23:00:00 14.4 0 Calma 3 Norte 0 -- -- 58
2019-04-12 22:00:00 15.5 0 Calma 2 Oeste 0 -- -- 55
2019-04-12 21:00:00 16.8 0 Calma 4 Sur 0 -- -- 47
2019-04-12 20:00:00 19 0 Calma 9 Sudoeste 0 -- -- 42
2019-04-12 19:00:00 20.7 3 Sudoeste 11 Sudoeste 0 -- -- 36
2019-04-12 18:00:00 22.1 3 Sudoeste 12 Noroeste 0 -- -- 35
2019-04-12 17:00:00 21.8 4 Sudoeste 16 Oeste 0 -- -- 35
2019-04-12 16:00:00 21 4 Sudoeste 13 Sudoeste 0 -- -- 38
2019-04-12 15:00:00 20.1 3 Sur 15 Sudeste 0 -- -- 39
2019-04-12 14:00:00 18.9 5 Nordeste 13 Este 0 -- -- 41
2019-04-12 13:00:00 18.3 4 Sudeste 15 Este 0 -- -- 45
2019-04-12 12:00:00 15.9 5 Sudeste 15 Este 0 -- -- 52
2019-04-12 11:00:00 11.6 5 Este 13 Este 0 -- -- 70
2019-04-12 10:00:00 8.5 4 Este 9 Este 0 -- -- 80
2019-04-12 09:00:00 6.4 0 Calma 3 Norte 0 -- -- 87
2019-04-12 08:00:00 6 0 Calma 2 Sudeste 0 -- -- 85
2019-04-12 07:00:00 6.8 0 Calma 4 Nordeste 0 -- -- 83
2019-04-12 06:00:00 7.5 3 Norte 8 Norte 0 -- -- 80
2019-04-12 05:00:00 7.8 0 Calma 10 Nordeste 0 -- -- 78
2019-04-12 04:00:00 8.4 6 Nordeste 10 Nordeste 0 -- -- 77
2019-04-12 03:00:00 9.2 6 Norte 13 Norte 0 -- -- 74
2019-04-12 02:00:00 10.1 0 Calma 3 Norte 0 -- -- 73
2019-04-12 01:00:00 10.7 0 Calma 4 Norte 0 -- -- 74
2019-04-12 00:00:00 11.1 0 Calma 5 Norte 0 -- -- 71
2019-04-11 23:00:00 12.3 2 Norte 11 Oeste 0 -- -- 63
2019-04-11 22:00:00 13.8 0 Calma 17 Oeste 0 -- -- 57
2019-04-11 21:00:00 15.6 8 Oeste 23 Noroeste 0 -- -- 49
2019-04-11 20:00:00 17.2 3 Sudoeste 18 Oeste 0 -- -- 47
2019-04-11 19:00:00 18.9 3 Sur 15 Este 0 -- -- 45
2019-04-11 18:00:00 19.6 7 Sudeste 14 Este 0 -- -- 45
2019-04-11 17:00:00 18.7 3 Sudoeste 14 Este 0 -- -- 45
2019-04-11 16:00:00 19.8 7 Este 17 Este 0 -- -- 46
2019-04-11 15:00:00 18.2 3 Norte 11 Noroeste 0 -- -- 47
2019-04-11 14:00:00 16.9 3 Sudoeste 14 Este 0 -- -- 52
2019-04-11 13:00:00 15.9 3 Sudeste 11 Este 0 -- -- 58
2019-04-11 12:00:00 13.8 3 Sudeste 10 Sudeste 0 -- -- 69
2019-04-11 11:00:00 10 3 Sudeste 8 Este 0 -- -- 87
2019-04-11 10:00:00 8.1 3 Este 9 Este 0 -- -- 93
2019-04-11 09:00:00 6.7 2 Este 9 Nordeste 0 -- -- 93
2019-04-11 08:00:00 6.2 4 Nordeste 7 Nordeste 0 -- -- 93
2019-04-11 07:00:00 6.4 3 Nordeste 7 Nordeste 0 -- -- 91
2019-04-11 06:00:00 7.2 0 Calma 7 Norte 0 -- -- 91
2019-04-11 05:00:00 7.5 4 Nordeste 10 Nordeste 0 -- -- 91
2019-04-11 04:00:00 7.8 0 Calma 7 Nordeste 0 -- -- 88
2019-04-11 03:00:00 8.5 2 Norte 8 Norte 0 -- -- 86
2019-04-11 02:00:00 9.3 0 Calma 4 Nordeste 0 -- -- 84
2019-04-11 01:00:00 9.9 3 Este 5 Nordeste 0.2 -- -- 85
2019-04-11 00:00:00 10.2 2 Sudeste 10 Este 0 -- -- 79
2019-04-10 23:00:00 10.6 4 Este 16 Nordeste 0 -- -- 77
2019-04-10 22:00:00 11.2 5 Este 19 Este 0 -- -- 72
2019-04-10 21:00:00 14 12 Nordeste 23 Nordeste 0 -- -- 59
2019-04-10 20:00:00 16.1 11 Oeste 21 Noroeste 0 -- -- 49
2019-04-10 19:00:00 16.5 6 Sudoeste 25 Sudoeste 0 -- -- 56
2019-04-10 18:00:00 17.1 8 Sudoeste 23 Sudoeste 0 -- -- 55
2019-04-10 17:00:00 16.5 8 Sudoeste 24 Oeste 0 -- -- 57
2019-04-10 16:00:00 15.2 7 Sudoeste 19 Oeste 0 -- -- 62
2019-04-10 15:00:00 14.2 5 Sudoeste 22 Sudoeste 0 -- -- 64
2019-04-10 14:00:00 13.4 6 Sudoeste 18 Sudoeste 0 -- -- 68
2019-04-10 13:00:00 12.3 7 Sudoeste 18 Sudoeste 0 -- -- 72
2019-04-10 12:00:00 11.4 4 Sudoeste 14 Sudoeste 0 -- -- 74
2019-04-10 11:00:00 10.8 5 Sudoeste 15 Oeste 0 -- -- 77
2019-04-10 10:00:00 9.5 5 Sudoeste 13 Sudoeste 0.2 -- -- 85
2019-04-10 09:00:00 7.2 0 Calma 5 Sudoeste 0 -- -- 93
2019-04-10 08:00:00 7.1 0 Calma 12 Oeste 0 -- -- 92
2019-04-10 07:00:00 7.6 0 Calma 11 Noroeste 0 -- -- 91
2019-04-10 06:00:00 8.1 3 Sudoeste 12 Sudoeste 0 -- -- 91
2019-04-10 05:00:00 8.5 3 Sudoeste 10 Sur 0 -- -- 91
2019-04-10 04:00:00 8.9 2 Sudoeste 10 Sudoeste 0 -- -- 91
2019-04-10 03:00:00 9.2 0 Calma 10 Oeste 0 -- -- 89
2019-04-10 02:00:00 9.6 2 Sudoeste 8 Oeste 0 -- -- 89
2019-04-10 01:00:00 9.9 0 Calma 10 Sudoeste 0 -- -- 88
2019-04-10 00:00:00 10.7 2 Sudoeste 12 Oeste 0 -- -- 84
2019-04-09 23:00:00 11.5 0 Calma 9 Sudoeste 0 -- -- 81
2019-04-09 22:00:00 12.2 0 Calma 11 Oeste 0 -- -- 81
2019-04-09 21:00:00 12.7 8 Noroeste 21 Sudoeste 0 -- -- 77
2019-04-09 20:00:00 14 8 Sudoeste 28 Sudoeste 0 -- -- 69
2019-04-09 19:00:00 14.7 8 Sudoeste 30 Oeste 0 -- -- 68
2019-04-09 18:00:00 15.1 8 Sudoeste 25 Sudoeste 0 -- -- 67
2019-04-09 17:00:00 12.2 4 Oeste 15 Noroeste 2 -- -- 86
2019-04-09 16:00:00 12.3 3 Oeste 18 Sudoeste 0.2 -- -- 84
2019-04-09 15:00:00 11.8 8 Oeste 28 Noroeste 2 -- -- 83
2019-04-09 14:00:00 13.3 8 Sudoeste 21 Sudoeste 0 -- -- 76
2019-04-09 13:00:00 11 5 Sudoeste 20 Sur 0.6 -- -- 88
2019-04-09 12:00:00 12.1 6 Sudoeste 18 Oeste 0 -- -- 79
2019-04-09 11:00:00 10 3 Sudoeste 14 Sudoeste 0 -- -- 93
2019-04-09 10:00:00 9 4 Sudoeste 13 Sudoeste 0 -- -- 96
2019-04-09 09:00:00 8.5 3 Sudoeste 12 Sudoeste 0 -- -- 96
2019-04-09 08:00:00 8.5 3 Sudoeste 14 Oeste 0 -- -- 95
2019-04-09 07:00:00 8.8 3 Sudoeste 10 Sudoeste 0 -- -- 94
2019-04-09 06:00:00 9 4 Oeste 10 Oeste 0 -- -- 94
2019-04-09 05:00:00 8.9 0 Calma 6 Sudoeste 0.2 -- -- 94
2019-04-09 04:00:00 9.4 0 Calma 9 Sudoeste 0 -- -- 93
2019-04-09 03:00:00 10.1 2 Sudoeste 11 Sudoeste 0 -- -- 94
2019-04-09 02:00:00 10.5 3 Sudoeste 21 Oeste 0.8 -- -- 94
2019-04-09 01:00:00 11.1 6 Oeste 29 Oeste 3.4 -- -- 96
2019-04-09 00:00:00 10.4 2 Sudoeste 17 Oeste 0.2 -- -- 94
2019-04-08 23:00:00 11.7 7 Sudoeste 22 Sudoeste 1 -- -- 90
2019-04-08 22:00:00 12.8 6 Sudoeste 23 Sudoeste 0 -- -- 89
2019-04-08 21:00:00 13.1 7 Sudoeste 21 Sudoeste 0 -- -- 89
2019-04-08 20:00:00 13.4 6 Sudoeste 20 Sudoeste 0 -- -- 90
2019-04-08 19:00:00 14.3 6 Sudoeste 18 Oeste 0 -- -- 85
2019-04-08 18:00:00 14.6 6 Sudoeste 23 Oeste 0.4 -- -- 86
2019-04-08 17:00:00 14.5 6 Sudoeste 23 Oeste 0.4 -- -- 87
2019-04-08 16:00:00 14.6 5 Sudoeste 21 Sudoeste 0 -- -- 88
2019-04-08 15:00:00 12.7 5 Sudoeste 19 Sudoeste 5.8 -- -- 94
2019-04-08 14:00:00 13.2 6 Sudoeste 26 Sudoeste 0.4 -- -- 93
2019-04-08 13:00:00 13 5 Sudoeste 16 Sudoeste 1.2 -- -- 92
2019-04-08 12:00:00 13.7 6 Sudoeste 21 Noroeste 0 -- -- 85
2019-04-08 11:00:00 12.4 5 Sudoeste 22 Sudoeste 0 -- -- 94
2019-04-08 10:00:00 12 5 Sudoeste 26 Sudoeste 0.2 -- -- 95
2019-04-08 09:00:00 11.8 6 Sudoeste 18 Oeste 1.4 -- -- 96
2019-04-08 08:00:00 12 4 Sudoeste 15 Oeste 0 -- -- 96
2019-04-08 07:00:00 12.1 4 Sudoeste 13 Sudoeste 1.6 -- -- 96
2019-04-08 06:00:00 12.1 5 Sudoeste 13 Sudoeste 0.4 -- -- 96
2019-04-08 05:00:00 12 3 Sudoeste 8 Sudoeste 0.2 -- -- 95
2019-04-08 04:00:00 11.9 3 Sudoeste 10 Oeste 0 -- -- 95
2019-04-08 03:00:00 11.6 0 Calma 6 Sudoeste 0.2 -- -- 95
2019-04-08 02:00:00 11.4 0 Calma 5 Sudeste 0.2 -- -- 94
2019-04-08 01:00:00 11.4 0 Calma 6 Sur 0.2 -- -- 94
2019-04-08 00:00:00 11.5 0 Calma 5 Noroeste 0.8 -- -- 94
2019-04-07 23:00:00 11.5 0 Calma 4 Sur 0.6 -- -- 93
2019-04-07 22:00:00 11.4 0 Calma 4 Sudoeste 0.2 -- -- 92
2019-04-07 21:00:00 11.2 0 Calma 7 Sudoeste 0.2 -- -- 92
2019-04-07 20:00:00 11.5 3 Sudoeste 13 Sudoeste 0 -- -- 89
2019-04-07 19:00:00 12.1 5 Sudoeste 19 Sudoeste 0 -- -- 82
2019-04-07 18:00:00 13.5 6 Sudoeste 21 Oeste 0 -- -- 69
2019-04-07 17:00:00 14.4 6 Sudoeste 22 Oeste 0 -- -- 64
2019-04-07 16:00:00 15.4 8 Sudoeste 19 Sudoeste 0 -- -- 60
2019-04-07 15:00:00 14.2 5 Sudoeste 22 Oeste 0 -- -- 64
2019-04-07 14:00:00 13.4 9 Sudoeste 26 Sudoeste 0 -- -- 67
2019-04-07 13:00:00 12.5 7 Sudoeste 18 Oeste 0 -- -- 75
2019-04-07 12:00:00 11.3 6 Sudoeste 21 Sudoeste 0 -- -- 78
2019-04-07 11:00:00 9.7 7 Sudoeste 17 Sudoeste 0 -- -- 87
2019-04-07 10:00:00 8.4 4 Sudoeste 15 Sudoeste 0 -- -- 92
2019-04-07 09:00:00 7.9 4 Sudoeste 14 Sudoeste 0 -- -- 94
2019-04-07 08:00:00 7.7 3 Sudoeste 15 Sudoeste 0 -- -- 93
2019-04-07 07:00:00 7.6 3 Sudoeste 16 Sudoeste 0.2 -- -- 94
2019-04-07 06:00:00 7.8 4 Sudoeste 21 Oeste 0 -- -- 92
2019-04-07 05:00:00 7.8 4 Sudoeste 17 Sudoeste 0 -- -- 94
2019-04-07 04:00:00 7.8 4 Sudoeste 15 Oeste 0 -- -- 94
2019-04-07 03:00:00 7.8 4 Sudoeste 13 Sudoeste 0 -- -- 94
2019-04-07 02:00:00 7.8 3 Sudoeste 14 Oeste 0 -- -- 93
2019-04-07 01:00:00 7.9 2 Sudoeste 8 Sudoeste 0.2 -- -- 93
2019-04-07 00:00:00 7.9 2 Sudoeste 9 Sudoeste 0.2 -- -- 92
2019-04-06 23:00:00 7.8 0 Calma 8 Oeste 0 -- -- 91
2019-04-06 22:00:00 7.7 0 Calma 9 Sur 0 -- -- 90
2019-04-06 21:00:00 8.1 0 Calma 7 Sur 0 -- -- 89
2019-04-06 20:00:00 8.8 2 Sudoeste 12 Sudoeste 1 -- -- 89
2019-04-06 19:00:00 9.1 3 Sudoeste 20 Noroeste 1.4 -- -- 86
2019-04-06 18:00:00 10.8 8 Noroeste 24 Sur 0 -- -- 71
2019-04-06 17:00:00 11.9 8 Sudoeste 25 Sudoeste 0 -- -- 69
2019-04-06 16:00:00 11.7 6 Sudoeste 20 Sudoeste 0 -- -- 71
2019-04-06 15:00:00 11.2 8 Sudoeste 26 Sudoeste 0.2 -- -- 73
2019-04-06 14:00:00 10.7 7 Sudoeste 22 Sur 0.2 -- -- 82
2019-04-06 13:00:00 10.7 8 Sudoeste 22 Sudoeste 0 -- -- 82
2019-04-06 12:00:00 8.7 7 Sudoeste 24 Sudoeste 0.4 -- -- 90
2019-04-06 11:00:00 7.5 4 Sudoeste 16 Oeste 0.4 -- -- 91
2019-04-06 10:00:00 7.3 3 Sudoeste 19 Sudoeste 0 -- -- 90
2019-04-06 09:00:00 6.9 4 Sudoeste 21 Sudoeste 0 -- -- 91
2019-04-06 08:00:00 6.8 5 Sudoeste 18 Oeste 0.2 -- -- 93
2019-04-06 07:00:00 6.8 5 Sudoeste 21 Oeste 0 -- -- 93
2019-04-06 06:00:00 6.8 6 Sudoeste 19 Sudoeste 0 -- -- 92
2019-04-06 05:00:00 6.7 4 Sudoeste 21 Sudoeste 0 -- -- 90
2019-04-06 04:00:00 7 7 Sudoeste 24 Oeste 0 -- -- 88
2019-04-06 03:00:00 7.2 6 Sudoeste 15 Oeste 0 -- -- 89
2019-04-06 02:00:00 6.8 3 Sudoeste 13 Sudoeste 0 -- -- 89
2019-04-06 01:00:00 7.1 5 Sudoeste 19 Sudoeste 0 -- -- 86
2019-04-06 00:00:00 7.7 7 Sudoeste 23 Oeste 0 -- -- 83
2019-04-05 23:00:00 8.7 9 Sudoeste 29 Oeste 0 -- -- 77
2019-04-05 22:00:00 9.3 8 Sudoeste 22 Oeste 0.2 -- -- 72
2019-04-05 21:00:00 8.5 0 Calma 14 Oeste 0.8 -- -- 78
2019-04-05 20:00:00 9.8 4 Sudoeste 13 Oeste 1.4 -- -- 77
2019-04-05 19:00:00 8.6 3 Oeste 15 Sur 2.4 -- -- 80
2019-04-05 18:00:00 7.5 0 Calma 24 Noroeste 2.4 -- -- 81
2019-04-05 17:00:00 10.6 4 Sur 10 Este 0 -- -- 81
2019-04-05 16:00:00 9.5 4 Sur 19 Oeste 0 -- -- 89
2019-04-05 15:00:00 9.4 10 Oeste 35 Oeste 1.6 -- -- 77
2019-04-05 14:00:00 10.2 7 Sudoeste 15 Sur 0.2 -- -- 82
2019-04-05 13:00:00 9.2 3 Sur 11 Sur 0 -- -- 90
2019-04-05 12:00:00 8.4 3 Sur 20 Sudoeste 2 -- -- 91
2019-04-05 11:00:00 8.6 5 Sudoeste 14 Oeste 2.4 -- -- 88
2019-04-05 10:00:00 9.1 0 Calma 8 Oeste 1.2 -- -- 82
2019-04-05 09:00:00 9.4 0 Calma 11 Sudoeste 0 -- -- 77
2019-04-05 08:00:00 9.2 0 Calma 7 Sur 0 -- -- 70
2019-04-05 07:00:00 9.2 2 Sudoeste 9 Sur 0 -- -- 70
2019-04-05 06:00:00 9.3 3 Sudoeste 13 Sudoeste 0 -- -- 67
2019-04-05 05:00:00 9 3 Sudoeste 11 Oeste 0 -- -- 66
2019-04-05 04:00:00 9.3 3 Sudoeste 14 Sudoeste 0 -- -- 64
2019-04-05 03:00:00 9.8 4 Sudoeste 17 Sudoeste 0 -- -- 61
2019-04-05 02:00:00 9.9 7 Sudoeste 19 Sudoeste 0 -- -- 57
2019-04-05 01:00:00 10.7 5 Sudoeste 28 Oeste 0 -- -- 52
2019-04-05 00:00:00 11.9 9 Sudoeste 29 Sudoeste 0 -- -- 45
2019-04-04 23:00:00 12.8 5 Sudoeste 22 Sudoeste 0 -- -- 44
2019-04-04 22:00:00 13.6 4 Sudoeste 16 Oeste 0 -- -- 38
2019-04-04 21:00:00 14.8 5 Sudoeste 24 Oeste 0 -- -- 36
2019-04-04 20:00:00 16.2 7 Sudoeste 23 Sudoeste 0 -- -- 32
2019-04-04 19:00:00 17.3 7 Sudoeste 27 Sudoeste 0 -- -- 32
2019-04-04 18:00:00 18.8 8 Sudoeste 23 Sudoeste 0 -- -- 31
2019-04-04 17:00:00 19.3 8 Sudoeste 18 Sudoeste 0 -- -- 30
2019-04-04 16:00:00 19.2 5 Sudoeste 17 Sur 0 -- -- 27
2019-04-04 15:00:00 19 4 Sur 15 Sudeste 0 -- -- 30
2019-04-04 14:00:00 17.4 6 Sudeste 17 Este 0 -- -- 34
2019-04-04 13:00:00 17.4 4 Sudeste 18 Sudeste 0 -- -- 34
2019-04-04 12:00:00 15.5 6 Este 14 Este 0 -- -- 37
2019-04-04 11:00:00 11.4 9 Nordeste 15 Nordeste 0 -- -- 48
2019-04-04 10:00:00 8.4 5 Nordeste 12 Este 0 -- -- 58
2019-04-04 09:00:00 6.5 3 Este 8 Este -- -- -- 69
2019-04-04 08:00:00 6.2 4 Nordeste 6 Nordeste 0 -- -- 65
2019-04-04 07:00:00 6.7 0 Calma 8 Norte 0 -- -- 66
2019-04-04 06:00:00 7.6 2 Norte 8 Norte 0 -- -- 60
2019-04-04 05:00:00 8.6 0 Calma 4 Oeste 0 -- -- 58
2019-04-04 04:00:00 9.2 2 Oeste 6 Norte 0 -- -- 55
2019-04-04 03:00:00 10.1 0 Calma 4 Noroeste 0 -- -- 50
2019-04-04 02:00:00 10.7 0 Calma 3 Noroeste 0 -- -- 53
2019-04-04 01:00:00 12.3 0 Calma 9 Oeste 0 -- -- 54
2019-04-04 00:00:00 13.5 4 Noroeste 11 Oeste 0 -- -- 52
2019-04-03 23:00:00 14.6 2 Oeste 12 Oeste 0 -- -- 50
2019-04-03 22:00:00 16 5 Oeste 22 Oeste 0 -- -- 47
2019-04-03 21:00:00 18.2 5 Sudoeste 29 Oeste 0 -- -- 39
2019-04-03 20:00:00 19.4 6 Sudoeste 28 Norte 0 -- -- 39
2019-04-03 19:00:00 20.4 9 Sudoeste 30 Noroeste 0 -- -- 37
2019-04-03 18:00:00 22.2 7 Sudoeste 26 Sudoeste 0 -- -- 35
2019-04-03 17:00:00 22.3 9 Sudoeste 27 Sudoeste 0 -- -- 32
2019-04-03 16:00:00 21.7 6 Sudoeste 26 Oeste 0 -- -- 38
2019-04-03 15:00:00 21 9 Sudoeste 23 Oeste 0 -- -- 42
2019-04-03 14:00:00 19.4 8 Sudoeste 21 Sudeste 0 -- -- 50
2019-04-03 13:00:00 18.8 4 Sudoeste 12 Sudoeste 0 -- -- 56
2019-04-03 12:00:00 16 4 Sudoeste 9 Sudoeste 0 -- -- 71
2019-04-03 11:00:00 12.7 2 Oeste 7 Oeste 0 -- -- 83
2019-04-03 10:00:00 10.6 2 Oeste 5 Oeste 0 -- -- 87
2019-04-03 09:00:00 8.9 0 Calma 3 Este 0 -- -- 89
2019-04-03 08:00:00 8.8 0 Calma 0 Calma 0 -- -- 87
2019-04-03 07:00:00 9.3 0 Calma 0 Calma 0 -- -- 88
2019-04-03 06:00:00 9.6 0 Calma 2 Noroeste 0 -- -- 86
2019-04-03 05:00:00 10.3 0 Calma 4 Nordeste 0 -- -- 84
2019-04-03 04:00:00 11 0 Calma 2 Nordeste 0 -- -- 81
2019-04-03 03:00:00 11.5 0 Calma 2 Norte 0 -- -- 79
2019-04-03 02:00:00 12.2 0 Calma 3 Este 0 -- -- 77
2019-04-03 01:00:00 12.8 0 Calma 2 Sudeste 0 -- -- 75
2019-04-03 00:00:00 13.6 0 Calma 2 Sudeste 0 -- -- 71
2019-04-02 23:00:00 14.6 0 Calma 8 Oeste 0 -- -- 67
2019-04-02 22:00:00 15.7 3 Oeste 6 Oeste 0 -- -- 61
2019-04-02 21:00:00 17.1 2 Sudoeste 9 Sudoeste 0 -- -- 56
2019-04-02 20:00:00 18.7 3 Sudoeste 13 Sudoeste 0 -- -- 50
2019-04-02 19:00:00 19.9 5 Sudoeste 18 Sur 0.2 -- -- 47
2019-04-02 18:00:00 21 4 Sudoeste 14 Sudoeste 0 -- -- 47
2019-04-02 17:00:00 20.4 5 Sudoeste 14 Oeste 0 -- -- 47
2019-04-02 16:00:00 19.6 4 Sudoeste 15 Sudoeste 0 -- -- 52
2019-04-02 15:00:00 19.3 4 Sur 11 Sudoeste 0 -- -- 54
2019-04-02 14:00:00 17.6 4 Sudoeste 12 Oeste 0 -- -- 60
2019-04-02 13:00:00 16.5 3 Sur 9 Sudoeste 0 -- -- 70
2019-04-02 12:00:00 14.2 0 Calma 8 Oeste 0 -- -- 78
2019-04-02 11:00:00 13.2 2 Sudoeste 7 Sur 0 -- -- 85
2019-04-02 10:00:00 12.4 0 Calma 5 Sur 0 -- -- 90
2019-04-02 09:00:00 11.7 0 Calma 5 Sur 0 -- -- 91
2019-04-02 08:00:00 11.5 2 Sudoeste 6 Sudoeste 0 -- -- 91
2019-04-02 07:00:00 11.5 0 Calma 6 Sudoeste 0 -- -- 91
2019-04-02 06:00:00 11 0 Calma 3 Sudeste 0 -- -- 91
2019-04-02 05:00:00 10.8 0 Calma 2 Este 0 -- -- 89
2019-04-02 04:00:00 11.8 0 Calma 5 Oeste 0 -- -- 87
2019-04-02 03:00:00 11.8 0 Calma 10 Oeste 0 -- -- 87
2019-04-02 02:00:00 12.6 5 Oeste 11 Oeste 0.2 -- -- 85
2019-04-02 01:00:00 13.1 2 Sudoeste 6 Oeste 0 -- -- 82
2019-04-02 00:00:00 13.4 0 Calma 9 Sudoeste 0 -- -- 82
2019-04-01 23:00:00 13.8 0 Calma 8 Sudoeste 0 -- -- 79
2019-04-01 22:00:00 13.9 0 Calma 10 Sudoeste 0 -- -- 76
2019-04-01 21:00:00 14.8 3 Sudoeste 16 Sudoeste 0 -- -- 68
2019-04-01 20:00:00 15.5 4 Sudoeste 16 Sudoeste 0 -- -- 71
2019-04-01 19:00:00 16 5 Sudoeste 15 Oeste 0 -- -- 65
2019-04-01 18:00:00 16.4 3 Sudoeste 12 Oeste 0 -- -- 67
2019-04-01 17:00:00 15.8 8 Sudoeste 22 Sudoeste 0 -- -- 72
2019-04-01 16:00:00 18.3 6 Sudoeste 15 Oeste 0 -- -- 60
2019-04-01 15:00:00 18.3 4 Sudoeste 12 Oeste 0 -- -- 54
2019-04-01 14:00:00 17.6 3 Sudoeste 13 Noroeste 0 -- -- 59
2019-04-01 13:00:00 16.6 3 Oeste 7 Noroeste 0 -- -- 73
2019-04-01 12:00:00 13.9 0 Calma 5 Este 0 -- -- 81
2019-04-01 11:00:00 12.7 2 Nordeste 4 Nordeste 0 -- -- 88
2019-04-01 10:00:00 11.9 3 Nordeste 5 Este 0 -- -- 90
2019-04-01 09:00:00 11.2 0 Calma 4 Sudeste 0 -- -- 91
2019-04-01 08:00:00 10.9 0 Calma 4 Este 0 -- -- 91
2019-04-01 07:00:00 11.2 0 Calma 8 Norte 0 -- -- 91
2019-04-01 06:00:00 10.5 3 Norte 4 Norte 0 -- -- 92
2019-04-01 05:00:00 10 0 Calma 5 Nordeste 0 -- -- 91
2019-04-01 04:00:00 10.3 2 Noroeste 7 Norte 0 -- -- 90
2019-04-01 03:00:00 10.9 0 Calma 4 Nordeste 0 -- -- 89
2019-04-01 02:00:00 10.8 0 Calma 4 Norte 0 -- -- 89
2019-04-01 01:00:00 11.2 0 Calma 4 Norte 0 -- -- 86
2019-04-01 00:00:00 11.7 0 Calma 5 Este 0 -- -- 84
2019-03-31 23:00:00 12.5 0 Calma 3 Sudeste 0 -- -- 82
2019-03-31 22:00:00 12.8 0 Calma 4 Sudeste 0 -- -- 82
2019-03-31 21:00:00 13.6 2 Sudeste 8 Sudeste 0 -- -- 77
2019-03-31 20:00:00 15.2 3 Este 14 Este 0 -- -- 69
2019-03-31 19:00:00 16.7 4 Este 16 Este 0 -- -- 64
2019-03-31 18:00:00 15.4 5 Este 11 Este 0 -- -- 74
2019-03-31 17:00:00 15.6 4 Nordeste 13 Este -- -- -- 74
2019-03-31 16:00:00 15.4 4 Nordeste 9 Norte 0 -- -- 75
2019-03-31 15:00:00 14.2 3 Nordeste 9 Norte 0 -- -- 79
2019-03-31 14:00:00 13.8 0 Calma 10 Norte 0 -- -- 84
2019-03-31 13:00:00 13.2 3 Este 9 Nordeste 0 -- -- 83
2019-03-31 12:00:00 12.5 3 Nordeste 9 Este 0 -- -- 87
2019-03-31 11:00:00 12.1 4 Este 11 Sudeste 0.4 -- -- 89
2019-03-31 10:00:00 11.6 5 Nordeste 12 Este 1.2 -- -- 90
2019-03-31 09:00:00 11.4 3 Este 9 Sudeste 1.6 -- -- 88
2019-03-31 08:00:00 11.9 2 Este 5 Sudeste 1.4 -- -- 89
2019-03-31 07:00:00 11.9 3 Este 8 Este 0.8 -- -- 89
2019-03-31 06:00:00 12.2 3 Este 8 Sudeste 1.2 -- -- 88
2019-03-31 05:00:00 12.2 0 Calma 6 Sudoeste 1.2 -- -- 87
2019-03-31 03:00:00 12.7 3 Oeste 13 Oeste 1.4 -- -- 84
2019-03-31 01:00:00 13.2 3 Sudoeste 14 Oeste 0.6 -- -- 79
2019-03-31 00:00:00 15.5 5 Sudoeste 13 Sur 0 -- -- 61
2019-03-30 23:00:00 16.3 4 Oeste 14 Sudoeste 0 -- -- 55
2019-03-30 22:00:00 17.4 9 Oeste 24 Oeste 0 -- -- 52
2019-03-30 21:00:00 18.3 6 Sudoeste 16 Oeste 0 -- -- 44
2019-03-30 20:00:00 20.1 3 Sur 8 Sur 0 -- -- 40
2019-03-30 19:00:00 21.9 3 Oeste 10 Oeste 0 -- -- 35
2019-03-30 18:00:00 23.7 2 Noroeste 10 Noroeste 0 -- -- 33
2019-03-30 17:00:00 25.6 3 Oeste 13 Este 0 -- -- 30
2019-03-30 16:00:00 25.2 6 Este 15 Este 0 -- -- 31
2019-03-30 15:00:00 25 5 Nordeste 18 Norte 0 -- -- 30
2019-03-30 14:00:00 23.5 7 Este 19 Este 0 -- -- 33
2019-03-30 13:00:00 21.1 7 Este 23 Este 0 -- -- 35
2019-03-30 12:00:00 19.8 10 Este 22 Este 0 -- -- 38
2019-03-30 11:00:00 17.1 9 Este 20 Este 0 -- -- 39
2019-03-30 10:00:00 13.4 9 Este 18 Este 0 -- -- 49
2019-03-30 09:00:00 10.8 7 Nordeste 16 Nordeste 0 -- -- 54
2019-03-30 08:00:00 9.2 9 Nordeste 21 Nordeste 0 -- -- 61
2019-03-30 07:00:00 9.4 10 Nordeste 19 Nordeste 0 -- -- 63
2019-03-30 06:00:00 10.1 10 Nordeste 16 Nordeste 0 -- -- 60
2019-03-30 05:00:00 10.5 9 Nordeste 17 Nordeste 0 -- -- 58
2019-03-30 04:00:00 10.2 4 Nordeste 9 Nordeste 0 -- -- 63
2019-03-30 03:00:00 11 4 Nordeste 10 Nordeste 0 -- -- 63
2019-03-30 02:00:00 11.7 7 Nordeste 12 Nordeste 0 -- -- 61
2019-03-30 01:00:00 12.5 4 Nordeste 9 Nordeste 0 -- -- 58
2019-03-30 00:00:00 14.1 0 Calma 9 Sudoeste 0 -- -- 55
2019-03-29 23:00:00 14.5 3 Sudoeste 13 Oeste 0 -- -- 54
2019-03-29 22:00:00 15.1 3 Sudoeste 10 Sudoeste 0 -- -- 49
2019-03-29 21:00:00 16 0 Calma 7 Sudeste 0 -- -- 39
2019-03-29 20:00:00 17.9 0 Calma 6 Norte 0 -- -- 33
2019-03-29 19:00:00 19.8 3 Nordeste 10 Nordeste 0 -- -- 31
2019-03-29 18:00:00 22.7 3 Este 13 Nordeste 0 -- -- 28
2019-03-29 17:00:00 23.9 5 Nordeste 12 Nordeste 0 -- -- 26
2019-03-29 16:00:00 22.5 5 Este 14 Este 0 -- -- 27
2019-03-29 15:00:00 22.3 5 Sudeste 19 Este 0 -- -- 27
2019-03-29 14:00:00 21.5 5 Nordeste 20 Este 0 -- -- 26
2019-03-29 13:00:00 19.8 8 Este 24 Nordeste 0 -- -- 31
2019-03-29 12:00:00 18.5 9 Este 24 Este 0 -- -- 36
2019-03-29 11:00:00 16.2 11 Sudeste 21 Nordeste 0 -- -- 36
2019-03-29 10:00:00 12.8 10 Nordeste 20 Este 0 -- -- 44
2019-03-29 09:00:00 10.2 10 Nordeste 18 Nordeste 0 -- -- 45
2019-03-29 08:00:00 8.2 7 Nordeste 13 Norte 0 -- -- 46
2019-03-29 07:00:00 7.9 6 Nordeste 10 Nordeste 0 -- -- 44
2019-03-29 06:00:00 8.4 4 Nordeste 12 Este 0 -- -- 40
2019-03-29 05:00:00 8.9 6 Nordeste 14 Nordeste 0 -- -- 39
2019-03-29 04:00:00 10.1 5 Nordeste 19 Este 0 -- -- 34
2019-03-29 03:00:00 10.7 6 Este 23 Este 0 -- -- 30
2019-03-29 02:00:00 11.1 6 Este 19 Nordeste 0 -- -- 31
2019-03-29 01:00:00 11.6 5 Sudeste 15 Sudeste 0 -- -- 35
2019-03-29 00:00:00 12.9 8 Este 22 Este 0 -- -- 33
2019-03-28 23:00:00 14 10 Este 24 Sudeste 0 -- -- 32
2019-03-28 22:00:00 15 12 Sudeste 31 Este 0 -- -- 29
2019-03-28 21:00:00 16.1 11 Sudeste 32 Este 0 -- -- 29
2019-03-28 20:00:00 17.8 12 Sudeste 28 Sudeste 0 -- -- 25
2019-03-28 19:00:00 19.9 6 Sudeste 19 Este 0 -- -- 23
2019-03-28 18:00:00 22.2 7 Sudeste 17 Este 0 -- -- 23
2019-03-28 17:00:00 24 6 Este 22 Este 0 -- -- 21
2019-03-28 16:00:00 23.2 5 Este 25 Este 0 -- -- 19
2019-03-28 15:00:00 22.8 8 Este 30 Este 0 -- -- 19
2019-03-28 14:00:00 21.7 12 Este 25 Este 0 -- -- 20
2019-03-28 13:00:00 18.8 8 Este 26 Este 0 -- -- 28
2019-03-28 12:00:00 18.2 10 Nordeste 25 Sudeste 0 -- -- 31
2019-03-28 11:00:00 16.7 12 Este 31 Este 0 -- -- 26
2019-03-28 10:00:00 12.5 14 Este 27 Este 0 -- -- 33
2019-03-28 09:00:00 9.2 9 Nordeste 21 Nordeste 0 -- -- 49
2019-03-28 08:00:00 7.4 12 Nordeste 22 Nordeste 0 -- -- 55
2019-03-28 07:00:00 7.5 12 Nordeste 19 Nordeste 0 -- -- 55
2019-03-28 06:00:00 8.2 11 Nordeste 18 Nordeste 0 -- -- 54
2019-03-28 05:00:00 8.8 8 Nordeste 17 Nordeste 0 -- -- 53
2019-03-28 04:00:00 9.5 9 Nordeste 17 Nordeste 0 -- -- 55
2019-03-28 03:00:00 10.4 10 Nordeste 15 Nordeste 0 -- -- 51
2019-03-28 02:00:00 11 8 Nordeste 13 Nordeste 0 -- -- 50
2019-03-28 01:00:00 11.5 8 Nordeste 12 Nordeste 0 -- -- 46
2019-03-28 00:00:00 12.4 0 Calma 9 Este 0 -- -- 42
2019-03-27 23:00:00 13.8 5 Este 19 Este 0 -- -- 39
2019-03-27 22:00:00 14.3 7 Nordeste 14 Este 0 -- -- 33
2019-03-27 21:00:00 15.4 5 Este 13 Sudeste 0 -- -- 30
2019-03-27 20:00:00 17.3 4 Nordeste 10 Este 0 -- -- 25
2019-03-27 19:00:00 19.5 4 Este 13 Nordeste 0 -- -- 23
2019-03-27 18:00:00 22.1 7 Este 18 Este 0 -- -- 19
2019-03-27 17:00:00 23.6 5 Este 22 Sudeste 0 -- -- 19
2019-03-27 16:00:00 22.4 10 Este 26 Este 0 -- -- 20
2019-03-27 15:00:00 22.4 13 Este 32 Este 0 -- -- 21
2019-03-27 14:00:00 21.1 14 Este 32 Este 0 -- -- 22
2019-03-27 13:00:00 19.1 15 Este 33 Este 0 -- -- 23
2019-03-27 12:00:00 18.7 16 Este 33 Este 0 -- -- 25
2019-03-27 11:00:00 16.4 12 Este 27 Este 0 -- -- 31
2019-03-27 10:00:00 12.9 12 Este 27 Este 0 -- -- 38
2019-03-27 09:00:00 10.9 12 Este 26 Este 0 -- -- 42
2019-03-27 08:00:00 9.3 11 Este 21 Este 0 -- -- 46
2019-03-27 07:00:00 9.4 9 Este 27 Este 0 -- -- 45
2019-03-27 06:00:00 9.9 14 Este 28 Nordeste 0 -- -- 43
2019-03-27 05:00:00 10.1 10 Este 32 Este 0 -- -- 46
2019-03-27 04:00:00 11 11 Este 25 Este 0 -- -- 47
2019-03-27 03:00:00 11.9 11 Este 24 Nordeste 0 -- -- 47
2019-03-27 02:00:00 12.5 13 Este 24 Este 0 -- -- 47
2019-03-27 01:00:00 13.1 9 Nordeste 22 Nordeste 0 -- -- 51
2019-03-27 00:00:00 14 10 Este 23 Este 0 -- -- 54